sensor_id;sensor_type;location;lat;lon;timestamp;temperature;humidity
35299;DHT22;21415;48.054;16.646;2023-01-16T00:00:48;12.40;50.30
35299;DHT22;21415;48.054;16.646;2023-01-16T00:03:14;12.40;50.30
35299;DHT22;21415;48.054;16.646;2023-01-16T00:05:40;12.40;50.20
35299;DHT22;21415;48.054;16.646;2023-01-16T00:08:06;12.40;50.20
35299;DHT22;21415;48.054;16.646;2023-01-16T00:10:31;12.40;50.20
35299;DHT22;21415;48.054;16.646;2023-01-16T00:12:57;12.40;50.20
35299;DHT22;21415;48.054;16.646;2023-01-16T00:15:23;12.40;50.20
35299;DHT22;21415;48.054;16.646;2023-01-16T00:17:48;12.40;50.20
35299;DHT22;21415;48.054;16.646;2023-01-16T00:20:15;12.40;50.20
35299;DHT22;21415;48.054;16.646;2023-01-16T00:22:41;12.40;50.10
35299;DHT22;21415;48.054;16.646;2023-01-16T00:25:06;12.40;50.10
35299;DHT22;21415;48.054;16.646;2023-01-16T00:27:32;12.40;50.10
35299;DHT22;21415;48.054;16.646;2023-01-16T00:29:58;12.40;50.10
35299;DHT22;21415;48.054;16.646;2023-01-16T00:32:23;12.20;50.00
35299;DHT22;21415;48.054;16.646;2023-01-16T00:34:49;12.30;50.00
35299;DHT22;21415;48.054;16.646;2023-01-16T00:37:15;12.30;50.10
35299;DHT22;21415;48.054;16.646;2023-01-16T00:39:40;12.30;50.10
35299;DHT22;21415;48.054;16.646;2023-01-16T00:42:06;12.20;50.00
35299;DHT22;21415;48.054;16.646;2023-01-16T00:44:32;12.30;50.10
35299;DHT22;21415;48.054;16.646;2023-01-16T00:46:58;12.30;50.10
35299;DHT22;21415;48.054;16.646;2023-01-16T00:49:23;12.30;50.10
35299;DHT22;21415;48.054;16.646;2023-01-16T00:51:49;12.30;50.10
35299;DHT22;21415;48.054;16.646;2023-01-16T00:54:14;12.30;50.10
35299;DHT22;21415;48.054;16.646;2023-01-16T00:56:40;12.30;50.10
35299;DHT22;21415;48.054;16.646;2023-01-16T00:59:06;12.30;50.10
35299;DHT22;21415;48.054;16.646;2023-01-16T01:01:31;12.30;50.10
35299;DHT22;21415;48.054;16.646;2023-01-16T01:03:58;12.30;50.10
35299;DHT22;21415;48.054;16.646;2023-01-16T01:06:23;12.30;50.10
35299;DHT22;21415;48.054;16.646;2023-01-16T01:08:49;12.40;50.10
35299;DHT22;21415;48.054;16.646;2023-01-16T01:11:15;12.30;50.00
35299;DHT22;21415;48.054;16.646;2023-01-16T01:13:41;12.20;50.00
35299;DHT22;21415;48.054;16.646;2023-01-16T01:16:07;12.20;50.00
35299;DHT22;21415;48.054;16.646;2023-01-16T01:18:33;12.20;50.00
35299;DHT22;21415;48.054;16.646;2023-01-16T01:20:58;12.10;50.00
35299;DHT22;21415;48.054;16.646;2023-01-16T01:23:24;12.10;50.00
35299;DHT22;21415;48.054;16.646;2023-01-16T01:25:50;12.00;50.50
35299;DHT22;21415;48.054;16.646;2023-01-16T01:28:16;12.00;50.00
35299;DHT22;21415;48.054;16.646;2023-01-16T01:30:41;12.00;50.00
35299;DHT22;21415;48.054;16.646;2023-01-16T01:33:07;12.00;50.00
35299;DHT22;21415;48.054;16.646;2023-01-16T01:35:34;11.90;50.00
35299;DHT22;21415;48.054;16.646;2023-01-16T01:38:00;12.00;50.10
35299;DHT22;21415;48.054;16.646;2023-01-16T01:40:26;11.90;50.30
35299;DHT22;21415;48.054;16.646;2023-01-16T01:42:51;11.90;50.10
35299;DHT22;21415;48.054;16.646;2023-01-16T01:45:20;11.90;50.10
35299;DHT22;21415;48.054;16.646;2023-01-16T01:55:59;11.90;50.00
35299;DHT22;21415;48.054;16.646;2023-01-16T01:58:25;11.90;50.00
35299;DHT22;21415;48.054;16.646;2023-01-16T02:00:53;11.90;50.00
35299;DHT22;21415;48.054;16.646;2023-01-16T02:03:20;11.90;50.50
35299;DHT22;21415;48.054;16.646;2023-01-16T02:05:51;11.90;50.00
35299;DHT22;21415;48.054;16.646;2023-01-16T02:08:19;11.90;49.90
35299;DHT22;21415;48.054;16.646;2023-01-16T02:10:51;12.00;49.90
35299;DHT22;21415;48.054;16.646;2023-01-16T02:13:17;12.00;49.90
35299;DHT22;21415;48.054;16.646;2023-01-16T02:15:42;12.00;49.90
35299;DHT22;21415;48.054;16.646;2023-01-16T02:18:27;11.90;49.90
35299;DHT22;21415;48.054;16.646;2023-01-16T02:21:21;12.00;49.90
35299;DHT22;21415;48.054;16.646;2023-01-16T02:29:15;12.00;49.90
35299;DHT22;21415;48.054;16.646;2023-01-16T02:44:49;12.00;49.70
35299;DHT22;21415;48.054;16.646;2023-01-16T02:47:27;12.00;49.70
35299;DHT22;21415;48.054;16.646;2023-01-16T02:50:21;12.00;49.70
35299;DHT22;21415;48.054;16.646;2023-01-16T02:53:02;12.00;49.70
35299;DHT22;21415;48.054;16.646;2023-01-16T02:55:39;12.00;49.70
35299;DHT22;21415;48.054;16.646;2023-01-16T02:58:06;12.00;49.70
35299;DHT22;21415;48.054;16.646;2023-01-16T03:00:33;11.90;49.60
35299;DHT22;21415;48.054;16.646;2023-01-16T03:02:59;12.00;49.70
35299;DHT22;21415;48.054;16.646;2023-01-16T03:05:25;12.00;49.60
35299;DHT22;21415;48.054;16.646;2023-01-16T03:07:58;12.00;49.60
35299;DHT22;21415;48.054;16.646;2023-01-16T03:10:39;12.00;49.60
35299;DHT22;21415;48.054;16.646;2023-01-16T03:18:25;12.00;49.50
35299;DHT22;21415;48.054;16.646;2023-01-16T03:23:23;12.00;49.50
35299;DHT22;21415;48.054;16.646;2023-01-16T03:25:53;12.00;49.40
35299;DHT22;21415;48.054;16.646;2023-01-16T03:28:21;12.00;49.40
35299;DHT22;21415;48.054;16.646;2023-01-16T03:36:13;12.00;49.40
35299;DHT22;21415;48.054;16.646;2023-01-16T03:38:36;12.00;49.40
35299;DHT22;21415;48.054;16.646;2023-01-16T03:41:03;12.00;49.40
35299;DHT22;21415;48.054;16.646;2023-01-16T03:43:32;12.00;49.40
35299;DHT22;21415;48.054;16.646;2023-01-16T03:46:00;12.00;49.30
35299;DHT22;21415;48.054;16.646;2023-01-16T03:51:14;12.00;49.30
35299;DHT22;21415;48.054;16.646;2023-01-16T03:53:43;12.00;49.30
35299;DHT22;21415;48.054;16.646;2023-01-16T03:58:42;12.10;49.40
35299;DHT22;21415;48.054;16.646;2023-01-16T04:01:18;12.10;49.30
35299;DHT22;21415;48.054;16.646;2023-01-16T04:03:54;12.10;49.30
35299;DHT22;21415;48.054;16.646;2023-01-16T04:06:31;12.10;49.30
35299;DHT22;21415;48.054;16.646;2023-01-16T04:08:57;12.10;49.30
35299;DHT22;21415;48.054;16.646;2023-01-16T04:11:23;12.10;49.40
35299;DHT22;21415;48.054;16.646;2023-01-16T04:13:51;12.10;49.30
35299;DHT22;21415;48.054;16.646;2023-01-16T04:16:18;12.10;49.30
35299;DHT22;21415;48.054;16.646;2023-01-16T04:18:45;12.10;49.30
35299;DHT22;21415;48.054;16.646;2023-01-16T04:21:11;12.10;49.40
35299;DHT22;21415;48.054;16.646;2023-01-16T04:23:37;12.10;49.40
35299;DHT22;21415;48.054;16.646;2023-01-16T04:26:02;12.10;49.40
35299;DHT22;21415;48.054;16.646;2023-01-16T04:28:28;12.10;49.40
35299;DHT22;21415;48.054;16.646;2023-01-16T04:30:53;12.10;49.40
35299;DHT22;21415;48.054;16.646;2023-01-16T04:33:19;12.10;49.40
35299;DHT22;21415;48.054;16.646;2023-01-16T04:35:45;12.10;49.50
35299;DHT22;21415;48.054;16.646;2023-01-16T04:38:11;12.10;49.50
35299;DHT22;21415;48.054;16.646;2023-01-16T04:40:37;12.10;49.50
35299;DHT22;21415;48.054;16.646;2023-01-16T04:43:03;12.10;49.50
35299;DHT22;21415;48.054;16.646;2023-01-16T04:45:29;12.10;49.50
35299;DHT22;21415;48.054;16.646;2023-01-16T04:47:54;12.10;49.50
35299;DHT22;21415;48.054;16.646;2023-01-16T04:50:20;12.10;49.50
35299;DHT22;21415;48.054;16.646;2023-01-16T04:52:46;12.10;49.50
35299;DHT22;21415;48.054;16.646;2023-01-16T04:55:12;12.10;49.50
35299;DHT22;21415;48.054;16.646;2023-01-16T04:57:38;12.10;49.50
35299;DHT22;21415;48.054;16.646;2023-01-16T05:00:04;12.10;49.50
35299;DHT22;21415;48.054;16.646;2023-01-16T05:02:30;12.10;49.60
35299;DHT22;21415;48.054;16.646;2023-01-16T05:04:56;12.10;49.50
35299;DHT22;21415;48.054;16.646;2023-01-16T05:07:21;12.10;49.50
35299;DHT22;21415;48.054;16.646;2023-01-16T05:09:47;12.10;49.50
35299;DHT22;21415;48.054;16.646;2023-01-16T05:12:12;12.10;49.60
35299;DHT22;21415;48.054;16.646;2023-01-16T05:14:38;12.00;49.50
35299;DHT22;21415;48.054;16.646;2023-01-16T05:17:04;12.10;49.60
35299;DHT22;21415;48.054;16.646;2023-01-16T05:19:29;12.10;49.60
35299;DHT22;21415;48.054;16.646;2023-01-16T05:21:55;12.10;49.60
35299;DHT22;21415;48.054;16.646;2023-01-16T05:24:21;12.00;49.60
35299;DHT22;21415;48.054;16.646;2023-01-16T05:26:46;12.00;49.60
35299;DHT22;21415;48.054;16.646;2023-01-16T05:29:12;12.10;49.60
35299;DHT22;21415;48.054;16.646;2023-01-16T05:31:38;12.00;49.60
35299;DHT22;21415;48.054;16.646;2023-01-16T05:34:03;12.00;49.60
35299;DHT22;21415;48.054;16.646;2023-01-16T05:36:29;12.10;49.70
35299;DHT22;21415;48.054;16.646;2023-01-16T05:38:54;12.00;49.60
35299;DHT22;21415;48.054;16.646;2023-01-16T05:41:20;12.10;49.70
35299;DHT22;21415;48.054;16.646;2023-01-16T05:43:46;12.00;49.60
35299;DHT22;21415;48.054;16.646;2023-01-16T05:46:11;12.10;49.70
35299;DHT22;21415;48.054;16.646;2023-01-16T05:48:37;12.00;49.60
35299;DHT22;21415;48.054;16.646;2023-01-16T05:51:04;12.00;49.60
35299;DHT22;21415;48.054;16.646;2023-01-16T05:53:29;12.00;49.60
35299;DHT22;21415;48.054;16.646;2023-01-16T05:55:56;12.10;49.60
35299;DHT22;21415;48.054;16.646;2023-01-16T05:58:22;12.00;49.60
35299;DHT22;21415;48.054;16.646;2023-01-16T06:00:47;12.00;49.50
35299;DHT22;21415;48.054;16.646;2023-01-16T06:03:13;12.10;49.60
35299;DHT22;21415;48.054;16.646;2023-01-16T06:05:41;12.10;49.60
35299;DHT22;21415;48.054;16.646;2023-01-16T06:08:06;12.10;49.60
35299;DHT22;21415;48.054;16.646;2023-01-16T06:10:32;12.00;49.40
35299;DHT22;21415;48.054;16.646;2023-01-16T06:13:00;12.10;49.50
35299;DHT22;21415;48.054;16.646;2023-01-16T06:15:26;12.00;49.40
35299;DHT22;21415;48.054;16.646;2023-01-16T06:17:51;12.10;49.50
35299;DHT22;21415;48.054;16.646;2023-01-16T06:20:19;12.10;49.50
35299;DHT22;21415;48.054;16.646;2023-01-16T06:22:44;12.10;49.50
35299;DHT22;21415;48.054;16.646;2023-01-16T06:25:10;12.10;49.40
35299;DHT22;21415;48.054;16.646;2023-01-16T06:27:36;12.10;49.40
35299;DHT22;21415;48.054;16.646;2023-01-16T06:30:02;12.10;49.40
35299;DHT22;21415;48.054;16.646;2023-01-16T06:32:28;12.10;49.40
35299;DHT22;21415;48.054;16.646;2023-01-16T06:34:53;12.10;49.40
35299;DHT22;21415;48.054;16.646;2023-01-16T06:37:19;12.10;49.40
35299;DHT22;21415;48.054;16.646;2023-01-16T06:39:45;12.10;49.40
35299;DHT22;21415;48.054;16.646;2023-01-16T06:42:10;12.00;49.30
35299;DHT22;21415;48.054;16.646;2023-01-16T06:44:36;12.00;49.30
35299;DHT22;21415;48.054;16.646;2023-01-16T06:47:02;12.00;49.40
35299;DHT22;21415;48.054;16.646;2023-01-16T06:49:27;12.00;49.40
35299;DHT22;21415;48.054;16.646;2023-01-16T06:51:53;12.00;49.40
35299;DHT22;21415;48.054;16.646;2023-01-16T06:54:19;12.00;49.40
35299;DHT22;21415;48.054;16.646;2023-01-16T06:56:45;12.00;49.40
35299;DHT22;21415;48.054;16.646;2023-01-16T06:59:10;12.00;49.40
35299;DHT22;21415;48.054;16.646;2023-01-16T07:01:36;12.00;49.40
35299;DHT22;21415;48.054;16.646;2023-01-16T07:04:01;12.00;49.40
35299;DHT22;21415;48.054;16.646;2023-01-16T07:06:27;12.00;49.40
35299;DHT22;21415;48.054;16.646;2023-01-16T07:08:53;12.00;49.40
35299;DHT22;21415;48.054;16.646;2023-01-16T07:11:18;12.00;49.40
35299;DHT22;21415;48.054;16.646;2023-01-16T07:13:44;12.00;49.40
35299;DHT22;21415;48.054;16.646;2023-01-16T07:16:10;12.00;49.50
35299;DHT22;21415;48.054;16.646;2023-01-16T07:18:55;12.00;49.40
35299;DHT22;21415;48.054;16.646;2023-01-16T07:21:39;12.00;49.40
35299;DHT22;21415;48.054;16.646;2023-01-16T07:24:25;12.00;49.50
35299;DHT22;21415;48.054;16.646;2023-01-16T07:26:53;12.00;49.50
35299;DHT22;21415;48.054;16.646;2023-01-16T07:29:22;12.00;49.50
35299;DHT22;21415;48.054;16.646;2023-01-16T07:31:48;12.00;49.50
35299;DHT22;21415;48.054;16.646;2023-01-16T07:34:14;12.00;49.50
35299;DHT22;21415;48.054;16.646;2023-01-16T07:36:39;12.00;49.50
35299;DHT22;21415;48.054;16.646;2023-01-16T07:39:05;12.00;49.50
35299;DHT22;21415;48.054;16.646;2023-01-16T07:41:31;12.00;49.50
35299;DHT22;21415;48.054;16.646;2023-01-16T07:43:57;12.00;49.50
35299;DHT22;21415;48.054;16.646;2023-01-16T07:46:23;12.00;49.50
35299;DHT22;21415;48.054;16.646;2023-01-16T07:48:48;12.00;49.50
35299;DHT22;21415;48.054;16.646;2023-01-16T07:51:16;12.00;49.50
35299;DHT22;21415;48.054;16.646;2023-01-16T07:53:42;12.10;49.50
35299;DHT22;21415;48.054;16.646;2023-01-16T07:56:08;12.10;49.50
35299;DHT22;21415;48.054;16.646;2023-01-16T07:58:33;12.10;49.50
35299;DHT22;21415;48.054;16.646;2023-01-16T08:00:59;12.10;49.50
35299;DHT22;21415;48.054;16.646;2023-01-16T08:03:25;12.10;49.50
35299;DHT22;21415;48.054;16.646;2023-01-16T08:05:57;12.10;49.50
35299;DHT22;21415;48.054;16.646;2023-01-16T08:08:23;12.10;49.40
35299;DHT22;21415;48.054;16.646;2023-01-16T08:10:55;12.10;49.40
35299;DHT22;21415;48.054;16.646;2023-01-16T08:13:20;12.20;49.50
35299;DHT22;21415;48.054;16.646;2023-01-16T08:15:46;12.10;49.40
35299;DHT22;21415;48.054;16.646;2023-01-16T08:18:12;12.10;49.50
35299;DHT22;21415;48.054;16.646;2023-01-16T08:20:38;12.10;49.50
35299;DHT22;21415;48.054;16.646;2023-01-16T08:23:04;12.10;49.50
35299;DHT22;21415;48.054;16.646;2023-01-16T08:25:29;12.10;49.50
35299;DHT22;21415;48.054;16.646;2023-01-16T08:27:55;12.20;49.50
35299;DHT22;21415;48.054;16.646;2023-01-16T08:30:21;12.20;49.50
35299;DHT22;21415;48.054;16.646;2023-01-16T08:32:46;12.20;49.50
35299;DHT22;21415;48.054;16.646;2023-01-16T08:35:12;12.20;49.40
35299;DHT22;21415;48.054;16.646;2023-01-16T08:37:38;12.20;49.30
35299;DHT22;21415;48.054;16.646;2023-01-16T08:40:03;12.30;49.40
35299;DHT22;21415;48.054;16.646;2023-01-16T08:42:30;12.20;49.30
35299;DHT22;21415;48.054;16.646;2023-01-16T08:45:14;12.30;49.30
35299;DHT22;21415;48.054;16.646;2023-01-16T08:47:58;12.30;49.30
35299;DHT22;21415;48.054;16.646;2023-01-16T08:50:43;12.30;49.30
35299;DHT22;21415;48.054;16.646;2023-01-16T08:53:28;12.30;49.30
35299;DHT22;21415;48.054;16.646;2023-01-16T08:55:54;12.30;49.30
35299;DHT22;21415;48.054;16.646;2023-01-16T08:58:19;12.30;49.40
35299;DHT22;21415;48.054;16.646;2023-01-16T09:00:48;12.30;49.40
35299;DHT22;21415;48.054;16.646;2023-01-16T09:03:14;12.30;49.50
35299;DHT22;21415;48.054;16.646;2023-01-16T09:05:42;12.30;49.50
35299;DHT22;21415;48.054;16.646;2023-01-16T09:08:07;12.30;49.50
35299;DHT22;21415;48.054;16.646;2023-01-16T09:10:33;12.30;49.60
35299;DHT22;21415;48.054;16.646;2023-01-16T09:12:59;12.30;49.60
35299;DHT22;21415;48.054;16.646;2023-01-16T09:15:43;12.40;49.70
35299;DHT22;21415;48.054;16.646;2023-01-16T09:18:09;12.40;49.60
35299;DHT22;21415;48.054;16.646;2023-01-16T09:20:34;12.40;49.60
35299;DHT22;21415;48.054;16.646;2023-01-16T09:23:00;12.50;49.70
35299;DHT22;21415;48.054;16.646;2023-01-16T09:25:27;12.50;49.60
35299;DHT22;21415;48.054;16.646;2023-01-16T09:27:53;12.50;49.60
35299;DHT22;21415;48.054;16.646;2023-01-16T09:30:19;12.60;49.60
35299;DHT22;21415;48.054;16.646;2023-01-16T09:32:45;12.60;49.50
35299;DHT22;21415;48.054;16.646;2023-01-16T09:35:11;12.60;49.40
35299;DHT22;21415;48.054;16.646;2023-01-16T09:37:36;12.60;49.30
35299;DHT22;21415;48.054;16.646;2023-01-16T09:40:02;12.60;49.30
35299;DHT22;21415;48.054;16.646;2023-01-16T09:45:17;12.60;49.30
35299;DHT22;21415;48.054;16.646;2023-01-16T09:47:45;12.60;49.30
35299;DHT22;21415;48.054;16.646;2023-01-16T09:50:12;12.60;49.30
35299;DHT22;21415;48.054;16.646;2023-01-16T09:52:39;12.60;49.20
35299;DHT22;21415;48.054;16.646;2023-01-16T09:58:19;12.60;49.20
35299;DHT22;21415;48.054;16.646;2023-01-16T10:01:10;12.60;49.30
35299;DHT22;21415;48.054;16.646;2023-01-16T10:03:38;12.60;49.30
35299;DHT22;21415;48.054;16.646;2023-01-16T10:11:22;12.50;49.40
35299;DHT22;21415;48.054;16.646;2023-01-16T10:13:55;12.50;49.40
35299;DHT22;21415;48.054;16.646;2023-01-16T10:17:10;12.50;49.50
35299;DHT22;21415;48.054;16.646;2023-01-16T10:22:14;12.40;49.50
35299;DHT22;21415;48.054;16.646;2023-01-16T10:29:33;12.40;49.60
35299;DHT22;21415;48.054;16.646;2023-01-16T10:32:11;12.40;49.60
35299;DHT22;21415;48.054;16.646;2023-01-16T10:37:16;12.50;49.60
35299;DHT22;21415;48.054;16.646;2023-01-16T10:39:42;12.50;49.60
35299;DHT22;21415;48.054;16.646;2023-01-16T10:42:10;12.50;49.60
35299;DHT22;21415;48.054;16.646;2023-01-16T10:44:57;12.50;49.60
35299;DHT22;21415;48.054;16.646;2023-01-16T10:47:42;12.50;49.50
35299;DHT22;21415;48.054;16.646;2023-01-16T10:50:27;12.50;49.50
35299;DHT22;21415;48.054;16.646;2023-01-16T10:52:53;12.50;49.50
35299;DHT22;21415;48.054;16.646;2023-01-16T10:55:19;12.50;49.60
35299;DHT22;21415;48.054;16.646;2023-01-16T10:57:46;12.50;49.60
35299;DHT22;21415;48.054;16.646;2023-01-16T11:00:20;12.50;49.60
35299;DHT22;21415;48.054;16.646;2023-01-16T11:02:50;12.50;49.60
35299;DHT22;21415;48.054;16.646;2023-01-16T11:05:24;12.50;49.60
35299;DHT22;21415;48.054;16.646;2023-01-16T11:07:54;12.50;49.70
35299;DHT22;21415;48.054;16.646;2023-01-16T11:10:21;12.50;49.70
35299;DHT22;21415;48.054;16.646;2023-01-16T11:12:46;12.50;49.70
35299;DHT22;21415;48.054;16.646;2023-01-16T11:15:31;12.50;49.70
35299;DHT22;21415;48.054;16.646;2023-01-16T11:18:19;12.60;49.80
35299;DHT22;21415;48.054;16.646;2023-01-16T11:20:54;12.60;49.80
35299;DHT22;21415;48.054;16.646;2023-01-16T11:23:21;12.50;49.70
35299;DHT22;21415;48.054;16.646;2023-01-16T11:25:48;12.60;49.80
35299;DHT22;21415;48.054;16.646;2023-01-16T11:28:22;12.50;49.80
35299;DHT22;21415;48.054;16.646;2023-01-16T11:30:48;12.60;49.90
35299;DHT22;21415;48.054;16.646;2023-01-16T11:33:20;12.60;49.90
35299;DHT22;21415;48.054;16.646;2023-01-16T11:35:57;12.60;49.80
35299;DHT22;21415;48.054;16.646;2023-01-16T11:38:24;12.60;49.70
35299;DHT22;21415;48.054;16.646;2023-01-16T11:40:50;12.60;49.70
35299;DHT22;21415;48.054;16.646;2023-01-16T11:43:18;12.60;49.60
35299;DHT22;21415;48.054;16.646;2023-01-16T11:46:07;12.60;49.50
35299;DHT22;21415;48.054;16.646;2023-01-16T11:48:43;12.60;49.50
35299;DHT22;21415;48.054;16.646;2023-01-16T11:51:16;12.60;49.60
35299;DHT22;21415;48.054;16.646;2023-01-16T11:53:43;12.50;49.60
35299;DHT22;21415;48.054;16.646;2023-01-16T12:09:10;12.40;49.80
35299;DHT22;21415;48.054;16.646;2023-01-16T12:22:06;12.50;50.00
35299;DHT22;21415;48.054;16.646;2023-01-16T12:32:22;12.50;49.90
35299;DHT22;21415;48.054;16.646;2023-01-16T12:48:22;12.50;49.80
35299;DHT22;21415;48.054;16.646;2023-01-16T12:58:30;12.40;49.80
35299;DHT22;21415;48.054;16.646;2023-01-16T13:01:19;12.40;49.90
35299;DHT22;21415;48.054;16.646;2023-01-16T13:03:45;12.40;49.90
35299;DHT22;21415;48.054;16.646;2023-01-16T13:06:14;12.40;49.90
35299;DHT22;21415;48.054;16.646;2023-01-16T13:08:45;12.40;49.90
35299;DHT22;21415;48.054;16.646;2023-01-16T13:11:19;12.40;50.00
35299;DHT22;21415;48.054;16.646;2023-01-16T13:14:05;12.30;50.00
35299;DHT22;21415;48.054;16.646;2023-01-16T13:16:33;12.30;50.00
35299;DHT22;21415;48.054;16.646;2023-01-16T13:19:06;12.30;50.00
35299;DHT22;21415;48.054;16.646;2023-01-16T13:21:36;12.30;50.00
35299;DHT22;21415;48.054;16.646;2023-01-16T13:24:14;12.20;50.00
35299;DHT22;21415;48.054;16.646;2023-01-16T13:26:42;12.20;50.00
35299;DHT22;21415;48.054;16.646;2023-01-16T13:29:13;12.20;50.00
35299;DHT22;21415;48.054;16.646;2023-01-16T13:31:49;12.20;50.10
35299;DHT22;21415;48.054;16.646;2023-01-16T13:34:32;12.20;50.20
35299;DHT22;21415;48.054;16.646;2023-01-16T13:37:22;12.10;50.20
35299;DHT22;21415;48.054;16.646;2023-01-16T13:40:05;12.10;50.30
35299;DHT22;21415;48.054;16.646;2023-01-16T13:42:33;12.10;50.30
35299;DHT22;21415;48.054;16.646;2023-01-16T13:45:01;12.10;50.30
35299;DHT22;21415;48.054;16.646;2023-01-16T13:47:46;12.10;50.30
35299;DHT22;21415;48.054;16.646;2023-01-16T13:52:39;12.00;50.10
35299;DHT22;21415;48.054;16.646;2023-01-16T13:55:06;12.00;50.10
35299;DHT22;21415;48.054;16.646;2023-01-16T13:57:40;12.00;50.10
35299;DHT22;21415;48.054;16.646;2023-01-16T14:00:09;11.90;50.00
35299;DHT22;21415;48.054;16.646;2023-01-16T14:15:54;11.80;50.10
35299;DHT22;21415;48.054;16.646;2023-01-16T14:18:40;11.70;50.10
35299;DHT22;21415;48.054;16.646;2023-01-16T14:23:49;11.70;50.10
35299;DHT22;21415;48.054;16.646;2023-01-16T14:34:24;11.60;50.30
35299;DHT22;21415;48.054;16.646;2023-01-16T14:36:52;11.60;50.30
35299;DHT22;21415;48.054;16.646;2023-01-16T14:39:37;11.60;50.30
35299;DHT22;21415;48.054;16.646;2023-01-16T14:42:11;11.50;50.30
35299;DHT22;21415;48.054;16.646;2023-01-16T14:47:59;11.50;50.40
35299;DHT22;21415;48.054;16.646;2023-01-16T14:50:51;11.40;50.50
35299;DHT22;21415;48.054;16.646;2023-01-16T14:53:35;11.40;50.50
35299;DHT22;21415;48.054;16.646;2023-01-16T14:56:27;11.40;50.50
35299;DHT22;21415;48.054;16.646;2023-01-16T14:58:57;11.30;50.60
35299;DHT22;21415;48.054;16.646;2023-01-16T15:04:37;11.20;50.60
35299;DHT22;21415;48.054;16.646;2023-01-16T15:07:04;11.20;50.60
35299;DHT22;21415;48.054;16.646;2023-01-16T15:09:30;11.10;50.70
35299;DHT22;21415;48.054;16.646;2023-01-16T15:12:00;11.10;50.70
35299;DHT22;21415;48.054;16.646;2023-01-16T15:14:27;11.10;50.70
35299;DHT22;21415;48.054;16.646;2023-01-16T15:17:00;11.10;50.90
35299;DHT22;21415;48.054;16.646;2023-01-16T15:22:59;11.00;50.80
35299;DHT22;21415;48.054;16.646;2023-01-16T15:27:53;11.00;50.90
35299;DHT22;21415;48.054;16.646;2023-01-16T15:30:21;11.00;50.90
35299;DHT22;21415;48.054;16.646;2023-01-16T15:32:51;11.00;50.90
35299;DHT22;21415;48.054;16.646;2023-01-16T15:35:18;10.90;50.90
35299;DHT22;21415;48.054;16.646;2023-01-16T15:37:49;10.90;50.90
35299;DHT22;21415;48.054;16.646;2023-01-16T15:40:21;10.90;50.90
35299;DHT22;21415;48.054;16.646;2023-01-16T15:42:47;10.90;50.90
35299;DHT22;21415;48.054;16.646;2023-01-16T15:45:31;10.90;51.00
35299;DHT22;21415;48.054;16.646;2023-01-16T15:51:02;10.90;51.10
35299;DHT22;21415;48.054;16.646;2023-01-16T15:53:37;10.90;51.10
35299;DHT22;21415;48.054;16.646;2023-01-16T15:56:07;10.80;51.10
35299;DHT22;21415;48.054;16.646;2023-01-16T15:58:35;10.80;51.10
35299;DHT22;21415;48.054;16.646;2023-01-16T16:01:02;10.80;51.10
35299;DHT22;21415;48.054;16.646;2023-01-16T16:03:38;10.90;51.20
35299;DHT22;21415;48.054;16.646;2023-01-16T16:06:04;10.90;51.10
35299;DHT22;21415;48.054;16.646;2023-01-16T16:08:34;10.80;51.10
35299;DHT22;21415;48.054;16.646;2023-01-16T16:11:01;10.80;51.20
35299;DHT22;21415;48.054;16.646;2023-01-16T16:13:47;10.80;51.20
35299;DHT22;21415;48.054;16.646;2023-01-16T16:16:21;10.80;51.30
35299;DHT22;21415;48.054;16.646;2023-01-16T16:19:05;10.80;51.30
35299;DHT22;21415;48.054;16.646;2023-01-16T16:21:35;10.70;51.30
35299;DHT22;21415;48.054;16.646;2023-01-16T16:24:03;10.70;51.30
35299;DHT22;21415;48.054;16.646;2023-01-16T16:26:30;10.70;51.30
35299;DHT22;21415;48.054;16.646;2023-01-16T16:29:00;10.60;51.40
35299;DHT22;21415;48.054;16.646;2023-01-16T16:31:30;10.70;51.50
35299;DHT22;21415;48.054;16.646;2023-01-16T16:36:22;10.60;51.40
35299;DHT22;21415;48.054;16.646;2023-01-16T16:38:49;10.60;51.50
35299;DHT22;21415;48.054;16.646;2023-01-16T16:43:42;10.60;51.50
35299;DHT22;21415;48.054;16.646;2023-01-16T16:46:29;10.60;51.60
35299;DHT22;21415;48.054;16.646;2023-01-16T16:51:35;10.50;51.40
35299;DHT22;21415;48.054;16.646;2023-01-16T16:54:19;10.50;51.50
35299;DHT22;21415;48.054;16.646;2023-01-16T16:56:51;10.50;51.60
35299;DHT22;21415;48.054;16.646;2023-01-16T16:59:19;10.50;51.50
35299;DHT22;21415;48.054;16.646;2023-01-16T17:01:47;10.50;51.60
35299;DHT22;21415;48.054;16.646;2023-01-16T17:04:13;10.50;51.50
35299;DHT22;21415;48.054;16.646;2023-01-16T17:06:41;10.60;51.50
35299;DHT22;21415;48.054;16.646;2023-01-16T17:09:11;10.50;51.50
35299;DHT22;21415;48.054;16.646;2023-01-16T17:11:38;10.50;51.50
35299;DHT22;21415;48.054;16.646;2023-01-16T17:14:04;10.50;51.50
35299;DHT22;21415;48.054;16.646;2023-01-16T17:16:30;10.50;51.40
35299;DHT22;21415;48.054;16.646;2023-01-16T17:19:00;10.50;51.50
35299;DHT22;21415;48.054;16.646;2023-01-16T17:21:26;10.40;51.40
35299;DHT22;21415;48.054;16.646;2023-01-16T17:23:51;10.50;51.30
35299;DHT22;21415;48.054;16.646;2023-01-16T17:26:17;10.50;51.30
35299;DHT22;21415;48.054;16.646;2023-01-16T17:28:43;10.50;51.20
35299;DHT22;21415;48.054;16.646;2023-01-16T17:31:12;10.40;51.10
35299;DHT22;21415;48.054;16.646;2023-01-16T17:33:38;10.40;51.10
35299;DHT22;21415;48.054;16.646;2023-01-16T17:36:04;10.40;51.00
35299;DHT22;21415;48.054;16.646;2023-01-16T17:38:39;10.30;51.00
35299;DHT22;21415;48.054;16.646;2023-01-16T17:41:06;10.30;51.00
35299;DHT22;21415;48.054;16.646;2023-01-16T17:43:38;10.30;51.10
35299;DHT22;21415;48.054;16.646;2023-01-16T17:46:23;10.20;51.10
35299;DHT22;21415;48.054;16.646;2023-01-16T17:48:49;10.20;51.20
35299;DHT22;21415;48.054;16.646;2023-01-16T17:51:16;10.20;51.40
35299;DHT22;21415;48.054;16.646;2023-01-16T17:53:47;10.30;51.50
35299;DHT22;21415;48.054;16.646;2023-01-16T17:56:12;10.20;51.50
35299;DHT22;21415;48.054;16.646;2023-01-16T17:58:39;10.10;51.60
35299;DHT22;21415;48.054;16.646;2023-01-16T18:01:18;10.10;51.60
35299;DHT22;21415;48.054;16.646;2023-01-16T18:03:45;10.10;51.70
35299;DHT22;21415;48.054;16.646;2023-01-16T18:06:38;10.10;51.80
35299;DHT22;21415;48.054;16.646;2023-01-16T18:09:04;10.10;51.70
35299;DHT22;21415;48.054;16.646;2023-01-16T18:11:34;10.20;51.80
35299;DHT22;21415;48.054;16.646;2023-01-16T18:14:18;10.10;51.60
35299;DHT22;21415;48.054;16.646;2023-01-16T18:17:03;10.10;51.60